aviador You're here:

SAOC Decoded Metar

RIO CUARTO in ARGENTINA
Report Time2018-06-23 05:00:00
UTC Time2018-06-23 06:03:50
Flight Rules vfr VFR
Wind270° at 07 kt
W.Decomp.*RWY 23: 5.2 kt HW 4.7 kt RCW
RWY 36: 0.2 kt HW 7 kt LCW
W.Rank270° ranks 7
Current wind is above 270° avg. (4.8)
Visibility9999 m
Phenomena:N/A
Clouds:N/A
Expected CloudBase > 2,800 ft AGL from Temp-Dew spread
CeilingNone
Temp09°C (ISA -3)
Dew Point02°C (62% RH)
AAT4.8°C
QNH1010 hPa
Density Alt1,194 ft
Elevation1,381 ft
Report Wrong Elevation
Raw Report
METAR SAOC 230500Z 27007KT CAVOK 09/02 Q1010=

Extra information for SAOC:More info

Metar Taf Metar & Taf Last 4 Metars F.Rules Stats Wind Profile Meteogram Temp Stats Airport Information Weather charts Add Link Nearby VenuesMetar ALERT Operation Metar Decoded Social comments